Clifford A. Barnes — WRN5495 — position and weather

sailwx.info

Track history (hours):
 
Tides and Currents Weather Stations Pressure Air Temp Water Temp Dewpoint Dewpoint Depression Visibility Wind Speed Wind Dir Waves Ship Positions

Oceanographic research ship Clifford A. Barnes (USA)

Ship's website: http://www.ocean.washington.edu/vessels/CAB/cab.html

Detailed information on ship capabilities available from University of Delaware's Ocean Information Center.

Owner: UNIVERSITY OF WASHINGTON, SEATTLE, WA. More information available from US FCC via Universal Licensing System.

Last reported at 2017-Apr-26 19:47 UTC. Time now 2017-Apr-29 05:46 UTC.
Position N 47°39' W 122°19'.

Length 22 m.

Type: Other ship. MMSI: 366918910.

Date/timePositionNaut miles runAvg speedWind from/ knotsBaromVisibWave heightAir tempDewpointWater temp
2017-Apr-26 19:47N 47°39' W 122°19'0 0.0
2017-Apr-26 19:30N 47°39' W 122°19'3 5.4
2017-Apr-26 19:00N 47°40' W 122°15'0 0.3
2017-Apr-26 18:29N 47°40' W 122°15'0 0.1
2017-Apr-26 18:00N 47°40' W 122°15'0 0.0
2017-Apr-26 17:30N 47°40' W 122°15'0 0.6
2017-Apr-26 17:00N 47°39' W 122°15'2 3.0
2017-Apr-26 16:30N 47°39' W 122°17'1 2.8
2017-Apr-26 16:00N 47°39' W 122°19'0 0.0
2017-Apr-26 15:28N 47°39' W 122°19'0 0.0
2017-Apr-26 14:59N 47°39' W 122°19'0 0.0
2017-Apr-26 14:25N 47°39' W 122°19'0 0.0
2017-Apr-25 22:00N 47°39' W 122°19'0 0.0
2017-Apr-25 21:12N 47°39' W 122°19'0 0.0
2017-Apr-25 20:54N 47°39' W 122°19'0 0.0
2017-Apr-25 20:18N 47°39' W 122°19'0 0.0
2017-Apr-25 20:00N 47°39' W 122°19'0 0.0
2017-Apr-24 19:18N 47°39' W 122°19'0 0.0
2017-Apr-24 19:00N 47°39' W 122°19'2 4.4
2017-Apr-24 18:29N 47°39' W 122°15'0 0.1
2017-Apr-24 17:56N 47°39' W 122°15'0 0.1
2017-Apr-24 17:29N 47°39' W 122°15'0 0.9
2017-Apr-24 17:00N 47°39' W 122°16'2 4.0
2017-Apr-24 16:30N 47°39' W 122°19'2 5.0
2017-Apr-24 16:01N 47°40' W 122°22'1 1.1
2017-Apr-24 15:30N 47°40' W 122°23'1 1.3
2017-Apr-24 15:01N 47°40' W 122°22'  
2017-Apr-18 00:04N 47°39' W 122°19'0 5.6
2017-Apr-18 00:00N 47°39' W 122°19'2 5.1
2017-Apr-17 23:30N 47°40' W 122°23'1 2.7
2017-Apr-17 23:00N 47°40' W 122°25'3 5.3
2017-Apr-17 22:30N 47°38' W 122°27'4 8.1
2017-Apr-17 22:00N 47°34' W 122°26'4 8.5
2017-Apr-17 21:30N 47°30' W 122°25'3 5.2
2017-Apr-17 21:00N 47°32' W 122°25'3 6.5
2017-Apr-17 20:30N 47°34' W 122°28'2 3.6
2017-Apr-17 20:00N 47°34' W 122°31'3 6.4
2017-Apr-17 19:30N 47°31' W 122°28'4 8.0
2017-Apr-17 19:00N 47°35' W 122°28'4 8.4
2017-Apr-17 18:30N 47°40' W 122°28'4 8.2
2017-Apr-17 18:00N 47°44' W 122°29'4 7.6
2017-Apr-17 17:30N 47°47' W 122°28'4 7.4
2017-Apr-17 17:00N 47°51' W 122°25'4 8.5
2017-Apr-17 16:30N 47°54' W 122°22'4 8.6
2017-Apr-17 16:00N 47°58' W 122°18'4 7.5
2017-Apr-17 15:30N 47°60' W 122°13'0 0.2
2017-Apr-17 15:00N 47°60' W 122°13'0 0.0
2017-Apr-17 14:30N 47°60' W 122°13'0 0.0
2017-Apr-17 02:44N 47°60' W 122°13'0 0.0
2017-Apr-17 02:30N 47°60' W 122°13'0 0.0
2017-Apr-17 02:00N 47°60' W 122°13'0 0.0
2017-Apr-17 01:30N 47°60' W 122°13'0 0.0
2017-Apr-17 01:00N 47°60' W 122°13'0 0.0
2017-Apr-17 00:30N 47°60' W 122°13'2 3.8
2017-Apr-16 23:57N 47°60' W 122°17'5 8.4
2017-Apr-16 23:20N 48°03' W 122°23'3 9.2
2017-Apr-16 23:00N 48°05' W 122°26'  
Track history (hours):
 
Tides and Currents Weather Stations Pressure Air Temp Water Temp Dewpoint Dewpoint Depression Visibility Wind Speed Wind Dir Waves Ship Positions

Oceanographic research ship Clifford A. Barnes (USA)

Ship's website: http://www.ocean.washington.edu/vessels/CAB/cab.html

Detailed information on ship capabilities available from University of Delaware's Ocean Information Center.

Owner: UNIVERSITY OF WASHINGTON, SEATTLE, WA. More information available from US FCC via Universal Licensing System.

Last reported at 2017-Apr-26 19:47 UTC. Time now 2017-Apr-29 05:46 UTC.
Position N 47°39' W 122°19'.

Length 22 m.

Type: Other ship. MMSI: 366918910.

Date/timePositionNaut miles runAvg speedWind from/ knotsBaromVisibWave heightAir tempDewpointWater temp
2017-Apr-26 19:47N 47°39' W 122°19'0 0.0
2017-Apr-26 19:30N 47°39' W 122°19'3 5.4
2017-Apr-26 19:00N 47°40' W 122°15'0 0.3
2017-Apr-26 18:29N 47°40' W 122°15'0 0.1
2017-Apr-26 18:00N 47°40' W 122°15'0 0.0
2017-Apr-26 17:30N 47°40' W 122°15'0 0.6
2017-Apr-26 17:00N 47°39' W 122°15'2 3.0
2017-Apr-26 16:30N 47°39' W 122°17'1 2.8
2017-Apr-26 16:00N 47°39' W 122°19'0 0.0
2017-Apr-26 15:28N 47°39' W 122°19'0 0.0
2017-Apr-26 14:59N 47°39' W 122°19'0 0.0
2017-Apr-26 14:25N 47°39' W 122°19'0 0.0
2017-Apr-25 22:00N 47°39' W 122°19'0 0.0
2017-Apr-25 21:12N 47°39' W 122°19'0 0.0
2017-Apr-25 20:54N 47°39' W 122°19'0 0.0
2017-Apr-25 20:18N 47°39' W 122°19'0 0.0
2017-Apr-25 20:00N 47°39' W 122°19'0 0.0
2017-Apr-24 19:18N 47°39' W 122°19'0 0.0
2017-Apr-24 19:00N 47°39' W 122°19'2 4.4
2017-Apr-24 18:29N 47°39' W 122°15'0 0.1
2017-Apr-24 17:56N 47°39' W 122°15'0 0.1
2017-Apr-24 17:29N 47°39' W 122°15'0 0.9
2017-Apr-24 17:00N 47°39' W 122°16'2 4.0
2017-Apr-24 16:30N 47°39' W 122°19'2 5.0
2017-Apr-24 16:01N 47°40' W 122°22'1 1.1
2017-Apr-24 15:30N 47°40' W 122°23'1 1.3
2017-Apr-24 15:01N 47°40' W 122°22'  
2017-Apr-18 00:04N 47°39' W 122°19'0 5.6
2017-Apr-18 00:00N 47°39' W 122°19'2 5.1
2017-Apr-17 23:30N 47°40' W 122°23'1 2.7
2017-Apr-17 23:00N 47°40' W 122°25'3 5.3
2017-Apr-17 22:30N 47°38' W 122°27'4 8.1
2017-Apr-17 22:00N 47°34' W 122°26'4 8.5
2017-Apr-17 21:30N 47°30' W 122°25'3 5.2
2017-Apr-17 21:00N 47°32' W 122°25'3 6.5
2017-Apr-17 20:30N 47°34' W 122°28'2 3.6
2017-Apr-17 20:00N 47°34' W 122°31'3 6.4
2017-Apr-17 19:30N 47°31' W 122°28'4 8.0
2017-Apr-17 19:00N 47°35' W 122°28'4 8.4
2017-Apr-17 18:30N 47°40' W 122°28'4 8.2
2017-Apr-17 18:00N 47°44' W 122°29'4 7.6
2017-Apr-17 17:30N 47°47' W 122°28'4 7.4
2017-Apr-17 17:00N 47°51' W 122°25'4 8.5
2017-Apr-17 16:30N 47°54' W 122°22'4 8.6
2017-Apr-17 16:00N 47°58' W 122°18'4 7.5
2017-Apr-17 15:30N 47°60' W 122°13'0 0.2
2017-Apr-17 15:00N 47°60' W 122°13'0 0.0
2017-Apr-17 14:30N 47°60' W 122°13'0 0.0
2017-Apr-17 02:44N 47°60' W 122°13'0 0.0
2017-Apr-17 02:30N 47°60' W 122°13'0 0.0
2017-Apr-17 02:00N 47°60' W 122°13'0 0.0
2017-Apr-17 01:30N 47°60' W 122°13'0 0.0
2017-Apr-17 01:00N 47°60' W 122°13'0 0.0
2017-Apr-17 00:30N 47°60' W 122°13'2 3.8
2017-Apr-16 23:57N 47°60' W 122°17'5 8.4
2017-Apr-16 23:20N 48°03' W 122°23'3 9.2
2017-Apr-16 23:00N 48°05' W 122°26'  

Dump ship's entire track history